Time;durP1;ratioP1;P1;durP2;ratioP2;P2;SDS_P1;SDS_P2;PMS_P1;PMS_P2;Temp;Humidity;BMP_temperature;BMP_pressure;BME280_temperature;BME280_humidity;BME280_pressure;Samples;Min_cycle;Max_cycle;Signal;HPM_P1;HPM_P2
2024/02/07 00:00:05;;;;;;;12.65;7.75;;;;;;;;;;2075477;28;20899;-53
2024/02/07 00:01:06;;;;;;;14.93;8.18;;;;;;;;;;2077426;28;20342;-51
2024/02/07 00:02:08;;;;;;;16.15;9.38;;;;;;;;;;2078694;28;20022;-51
2024/02/07 00:03:11;;;;;;;15.25;8.68;;;;;;;;;;2081168;28;20033;-52
2024/02/07 00:04:12;;;;;;;14.93;9.75;;;;;;;;;;2081226;28;20444;-51
2024/02/07 00:05:13;;;;;;;15.48;8.27;;;;;;;;;;2088741;28;20029;-54
2024/02/07 00:06:16;;;;;;;13.98;9.10;;;;;;;;;;2086816;28;20026;-54
2024/02/07 00:07:17;;;;;;;16.05;8.23;;;;;;;;;;2080764;28;20064;-50
2024/02/07 00:08:18;;;;;;;15.88;8.43;;;;;;;;;;2081147;28;20010;-50
2024/02/07 00:09:20;;;;;;;13.48;7.97;;;;;;;;;;2080884;28;20042;-52
2024/02/07 00:10:21;;;;;;;16.00;9.30;;;;;;;;;;2072377;28;20025;-51
2024/02/07 00:11:22;;;;;;;17.20;9.38;;;;;;;;;;2080910;28;20017;-52
2024/02/07 00:12:24;;;;;;;16.17;8.70;;;;;;;;;;2081117;28;20022;-51
2024/02/07 00:13:25;;;;;;;16.10;8.82;;;;;;;;;;2081604;28;20149;-53
2024/02/07 00:14:26;;;;;;;14.93;8.75;;;;;;;;;;2077769;28;20022;-49
2024/02/07 00:15:27;;;;;;;14.40;9.02;;;;;;;;;;2073558;28;20113;-50
2024/02/07 00:16:29;;;;;;;16.13;9.00;;;;;;;;;;2080388;28;20018;-52
2024/02/07 00:17:30;;;;;;;15.75;8.23;;;;;;;;;;2079102;28;20116;-51
2024/02/07 00:18:31;;;;;;;16.65;8.88;;;;;;;;;;2073370;28;20018;-54
2024/02/07 00:19:32;;;;;;;14.48;8.48;;;;;;;;;;2078714;28;20404;-53
2024/02/07 00:20:34;;;;;;;13.43;7.68;;;;;;;;;;2080953;28;20144;-52
2024/02/07 00:21:35;;;;;;;17.83;9.20;;;;;;;;;;2073550;28;20022;-52
2024/02/07 00:22:36;;;;;;;15.95;8.75;;;;;;;;;;2076974;28;20017;-52
2024/02/07 00:23:38;;;;;;;17.83;8.88;;;;;;;;;;2080911;28;20029;-49
2024/02/07 00:24:39;;;;;;;15.95;8.70;;;;;;;;;;2080786;28;20022;-51
2024/02/07 00:25:41;;;;;;;15.35;8.68;;;;;;;;;;2078614;28;20079;-52
2024/02/07 00:26:43;;;;;;;14.18;8.60;;;;;;;;;;2076557;28;20020;-52
2024/02/07 00:27:44;;;;;;;17.02;8.30;;;;;;;;;;2081371;28;20032;-53
2024/02/07 00:28:45;;;;;;;13.80;9.52;;;;;;;;;;2081278;28;20020;-53
2024/02/07 00:29:46;;;;;;;15.80;9.38;;;;;;;;;;2080998;28;20088;-54
2024/02/07 00:30:48;;;;;;;14.55;9.13;;;;;;;;;;2080818;28;20056;-53
2024/02/07 00:31:49;;;;;;;13.77;8.50;;;;;;;;;;2081436;28;20388;-52
2024/02/07 00:32:50;;;;;;;13.65;8.23;;;;;;;;;;2081105;28;20021;-53
2024/02/07 00:33:51;;;;;;;15.07;8.30;;;;;;;;;;2078589;28;20026;-52
2024/02/07 00:34:53;;;;;;;15.48;8.93;;;;;;;;;;2072754;28;20088;-52
2024/02/07 00:35:54;;;;;;;13.75;7.97;;;;;;;;;;2079833;28;20029;-53
2024/02/07 00:36:55;;;;;;;16.55;8.90;;;;;;;;;;2079901;28;20028;-52
2024/02/07 00:37:57;;;;;;;13.20;8.43;;;;;;;;;;2073301;28;20030;-52
2024/02/07 00:38:58;;;;;;;14.70;8.95;;;;;;;;;;2074080;28;20040;-49
2024/02/07 00:40:00;;;;;;;15.35;8.63;;;;;;;;;;2074391;28;20037;-52
2024/02/07 00:41:01;;;;;;;17.20;9.05;;;;;;;;;;2081368;28;20026;-51
2024/02/07 00:42:02;;;;;;;14.27;8.45;;;;;;;;;;2077436;28;20030;-52
2024/02/07 00:43:04;;;;;;;14.85;7.93;;;;;;;;;;2073374;28;20030;-51
2024/02/07 00:44:05;;;;;;;13.20;7.95;;;;;;;;;;2081243;28;20022;-51
2024/02/07 00:45:07;;;;;;;14.55;8.80;;;;;;;;;;2081235;28;20017;-51
2024/02/07 00:46:08;;;;;;;14.32;8.57;;;;;;;;;;2080776;28;20029;-48
2024/02/07 00:47:11;;;;;;;14.15;8.65;;;;;;;;;;2075288;28;20025;-51
2024/02/07 00:48:12;;;;;;;16.45;7.85;;;;;;;;;;2074310;28;20014;-51
2024/02/07 00:49:13;;;;;;;14.55;8.40;;;;;;;;;;2073186;28;20037;-51
2024/02/07 00:50:15;;;;;;;13.45;8.32;;;;;;;;;;2081582;28;20010;-51
2024/02/07 00:51:16;;;;;;;15.57;8.02;;;;;;;;;;2081066;28;20455;-52
2024/02/07 00:52:17;;;;;;;16.98;8.85;;;;;;;;;;2081158;28;20032;-54
2024/02/07 00:53:19;;;;;;;13.65;8.95;;;;;;;;;;2081165;28;20045;-54
2024/02/07 00:54:21;;;;;;;15.65;8.50;;;;;;;;;;2081662;28;20498;-53
2024/02/07 00:55:22;;;;;;;14.45;8.73;;;;;;;;;;2081109;28;20031;-52
2024/02/07 00:56:24;;;;;;;12.30;8.10;;;;;;;;;;2081143;28;20036;-51
2024/02/07 00:57:25;;;;;;;17.33;8.80;;;;;;;;;;2081335;28;20079;-52
2024/02/07 00:58:26;;;;;;;16.48;8.75;;;;;;;;;;2080495;28;20067;-52
2024/02/07 00:59:28;;;;;;;16.30;8.40;;;;;;;;;;2079482;28;20422;-49
2024/02/07 01:00:29;;;;;;;12.95;7.85;;;;;;;;;;2081579;28;20091;-53
2024/02/07 01:01:30;;;;;;;12.65;8.30;;;;;;;;;;2081174;28;20022;-53
2024/02/07 01:02:32;;;;;;;12.38;8.15;;;;;;;;;;2081435;28;20032;-53
2024/02/07 01:03:33;;;;;;;15.18;8.73;;;;;;;;;;2081557;28;20029;-52
2024/02/07 01:04:34;;;;;;;13.05;8.43;;;;;;;;;;2083891;28;20053;-51
2024/02/07 01:05:35;;;;;;;12.80;8.20;;;;;;;;;;2089858;28;20024;-51
2024/02/07 01:06:38;;;;;;;13.68;8.23;;;;;;;;;;2086723;28;20511;-52
2024/02/07 01:07:40;;;;;;;17.98;8.88;;;;;;;;;;2088819;28;20009;-52
2024/02/07 01:08:42;;;;;;;14.55;9.13;;;;;;;;;;2089372;28;20467;-52
2024/02/07 01:09:44;;;;;;;13.25;7.93;;;;;;;;;;2084407;28;20059;-51
2024/02/07 01:10:45;;;;;;;13.52;8.20;;;;;;;;;;2082054;28;20028;-50
2024/02/07 01:11:47;;;;;;;14.75;8.55;;;;;;;;;;2074344;28;20021;-53
2024/02/07 01:12:48;;;;;;;15.65;8.40;;;;;;;;;;2073520;28;20029;-53
2024/02/07 01:13:50;;;;;;;15.82;8.40;;;;;;;;;;2073582;28;20016;-54
2024/02/07 01:14:52;;;;;;;14.35;8.00;;;;;;;;;;2079040;28;20013;-52
2024/02/07 01:15:53;;;;;;;13.15;7.93;;;;;;;;;;2075582;28;20053;-51
2024/02/07 01:16:54;;;;;;;17.50;8.38;;;;;;;;;;2082020;28;20026;-52
2024/02/07 01:17:56;;;;;;;15.80;8.60;;;;;;;;;;2081097;28;20033;-54
2024/02/07 01:18:57;;;;;;;14.05;7.95;;;;;;;;;;2080920;28;20037;-51
2024/02/07 01:19:58;;;;;;;13.23;7.70;;;;;;;;;;2079236;28;20105;-52
2024/02/07 01:20:59;;;;;;;14.10;8.30;;;;;;;;;;2073100;28;20112;-53
2024/02/07 01:22:01;;;;;;;13.90;8.48;;;;;;;;;;2072482;28;20108;-53
2024/02/07 01:23:02;;;;;;;14.25;8.60;;;;;;;;;;2072867;28;20133;-52
2024/02/07 01:24:06;;;;;;;12.48;7.97;;;;;;;;;;2075137;28;20049;-50
2024/02/07 01:25:08;;;;;;;17.10;8.60;;;;;;;;;;2081235;28;20064;-52
2024/02/07 01:26:13;;;;;;;13.77;8.60;;;;;;;;;;2074763;28;20022;-53
2024/02/07 01:27:14;;;;;;;16.50;8.88;;;;;;;;;;2073518;28;20084;-52
2024/02/07 01:28:16;;;;;;;12.43;8.15;;;;;;;;;;2073228;28;20029;-52
2024/02/07 01:29:17;;;;;;;13.65;8.73;;;;;;;;;;2078824;28;20017;-53
2024/02/07 01:30:18;;;;;;;13.68;8.63;;;;;;;;;;2080924;28;20092;-52
2024/02/07 01:31:22;;;;;;;16.80;8.98;;;;;;;;;;2081132;28;20495;-53
2024/02/07 01:32:23;;;;;;;15.38;8.38;;;;;;;;;;2084156;28;20560;-51
2024/02/07 01:33:25;;;;;;;16.83;8.60;;;;;;;;;;2080555;28;20021;-50
2024/02/07 01:34:26;;;;;;;13.35;8.38;;;;;;;;;;2080894;28;20013;-51
2024/02/07 01:35:30;;;;;;;12.20;6.85;;;;;;;;;;2080180;28;20495;-50
2024/02/07 01:36:31;;;;;;;15.85;7.05;;;;;;;;;;2080762;28;20098;-51
2024/02/07 01:37:33;;;;;;;13.13;7.07;;;;;;;;;;2079399;28;20080;-51
2024/02/07 01:38:34;;;;;;;10.30;6.38;;;;;;;;;;2082910;28;20017;-51
2024/02/07 01:39:35;;;;;;;16.92;7.88;;;;;;;;;;2080662;28;20028;-52
2024/02/07 01:40:43;;;;;;;12.25;6.93;;;;;;;;;;2080829;28;20465;-49
2024/02/07 01:41:58;;;;;;;14.25;7.60;;;;;;;;;;2079839;28;20021;-49
2024/02/07 01:43:01;;;;;;;16.15;8.43;;;;;;;;;;2073897;28;20072;-50
2024/02/07 01:44:02;;;;;;;13.73;8.00;;;;;;;;;;2080880;28;20026;-49
2024/02/07 01:45:22;;;;;;;16.40;7.78;;;;;;;;;;2079715;28;20029;-51
2024/02/07 01:46:23;;;;;;;13.30;7.90;;;;;;;;;;2075361;28;20028;-51
2024/02/07 01:47:25;;;;;;;16.42;8.65;;;;;;;;;;2081178;28;20022;-47
2024/02/07 01:48:27;;;;;;;13.77;7.95;;;;;;;;;;2084374;28;20033;-50
2024/02/07 01:49:28;;;;;;;17.10;8.98;;;;;;;;;;2081228;28;20108;-50
2024/02/07 01:50:30;;;;;;;16.77;8.65;;;;;;;;;;2080982;28;20344;-51
2024/02/07 01:51:31;;;;;;;13.32;8.18;;;;;;;;;;2084725;28;20016;-51
2024/02/07 01:52:36;;;;;;;15.88;8.50;;;;;;;;;;2081430;28;20014;-49
2024/02/07 01:53:38;;;;;;;14.05;8.38;;;;;;;;;;2081152;28;20064;-49
2024/02/07 01:54:40;;;;;;;13.23;7.97;;;;;;;;;;2080939;28;20064;-49
2024/02/07 01:55:44;;;;;;;14.50;7.70;;;;;;;;;;2073146;28;20026;-50
2024/02/07 01:56:45;;;;;;;12.30;8.05;;;;;;;;;;2080870;28;20116;-50
2024/02/07 01:57:48;;;;;;;16.02;8.18;;;;;;;;;;2081277;28;20029;-48
2024/02/07 01:58:50;;;;;;;14.80;7.70;;;;;;;;;;2081329;28;20029;-50
2024/02/07 01:59:51;;;;;;;12.45;7.70;;;;;;;;;;2075735;28;20034;-49
2024/02/07 02:00:52;;;;;;;16.92;7.75;;;;;;;;;;2074853;28;20022;-49
2024/02/07 02:01:54;;;;;;;13.48;7.72;;;;;;;;;;2081181;28;20049;-49
2024/02/07 02:02:55;;;;;;;15.30;8.50;;;;;;;;;;2078847;28;20033;-49
2024/02/07 02:03:57;;;;;;;15.55;8.55;;;;;;;;;;2073537;28;20106;-48
2024/02/07 02:04:58;;;;;;;11.20;7.22;;;;;;;;;;2086749;28;20020;-49
2024/02/07 02:06:00;;;;;;;15.40;8.02;;;;;;;;;;2086665;28;20486;-49
2024/02/07 02:07:03;;;;;;;13.18;8.18;;;;;;;;;;2072598;28;20547;-48
2024/02/07 02:08:04;;;;;;;10.63;7.72;;;;;;;;;;2072568;28;20017;-48
2024/02/07 02:09:06;;;;;;;12.13;7.35;;;;;;;;;;2071789;28;20026;-49
2024/02/07 02:10:08;;;;;;;15.30;7.95;;;;;;;;;;2080025;28;20037;-49
2024/02/07 02:11:10;;;;;;;10.93;8.00;;;;;;;;;;2079958;28;20634;-49
2024/02/07 02:12:12;;;;;;;13.57;7.82;;;;;;;;;;2080082;28;20451;-49
2024/02/07 02:13:13;;;;;;;14.35;8.07;;;;;;;;;;2080787;28;20108;-48
2024/02/07 02:14:15;;;;;;;13.05;7.50;;;;;;;;;;2077721;28;20025;-49
2024/02/07 02:15:17;;;;;;;14.98;7.95;;;;;;;;;;2077156;28;20500;-49
2024/02/07 02:16:18;;;;;;;12.68;8.27;;;;;;;;;;2075434;28;20041;-50
2024/02/07 02:17:19;;;;;;;13.98;7.95;;;;;;;;;;2073256;28;20033;-48
2024/02/07 02:18:20;;;;;;;15.90;8.95;;;;;;;;;;2080762;28;20029;-49
2024/02/07 02:19:22;;;;;;;12.40;7.32;;;;;;;;;;2076838;28;20105;-49
2024/02/07 02:20:24;;;;;;;16.17;8.93;;;;;;;;;;2072529;28;20080;-50
2024/02/07 02:21:27;;;;;;;11.85;7.70;;;;;;;;;;2079929;28;20032;-49
2024/02/07 02:22:31;;;;;;;14.95;8.23;;;;;;;;;;2080660;28;20107;-48
2024/02/07 02:23:32;;;;;;;14.73;8.40;;;;;;;;;;2080724;28;20082;-48
2024/02/07 02:24:34;;;;;;;12.32;7.72;;;;;;;;;;2073817;28;20022;-48
2024/02/07 02:25:41;;;;;;;13.02;7.68;;;;;;;;;;2072584;28;20105;-48
2024/02/07 02:27:01;;;;;;;16.85;8.32;;;;;;;;;;2072629;28;20049;-52
2024/02/07 02:28:25;;;;;;;14.68;8.23;;;;;;;;;;2080752;28;20388;-53
2024/02/07 02:29:36;;;;;;;12.07;7.40;;;;;;;;;;2073801;28;20022;-47
2024/02/07 02:30:47;;;;;;;18.27;9.05;;;;;;;;;;2073206;28;20010;-48
2024/02/07 02:31:51;;;;;;;14.05;8.50;;;;;;;;;;2072906;28;20093;-47
2024/02/07 02:32:53;;;;;;;15.23;7.85;;;;;;;;;;2080596;28;20021;-47
2024/02/07 02:33:56;;;;;;;12.30;8.15;;;;;;;;;;2080230;28;20083;-48
2024/02/07 02:34:57;;;;;;;17.42;8.20;;;;;;;;;;2080736;28;20025;-47
2024/02/07 02:36:00;;;;;;;15.85;8.68;;;;;;;;;;2080329;28;20036;-48
2024/02/07 02:37:02;;;;;;;16.33;7.70;;;;;;;;;;2078336;28;20025;-48
2024/02/07 02:38:03;;;;;;;15.27;8.57;;;;;;;;;;2071927;28;20030;-48
2024/02/07 02:39:05;;;;;;;15.38;8.32;;;;;;;;;;2076744;28;20049;-47
2024/02/07 02:40:07;;;;;;;14.13;7.93;;;;;;;;;;2073043;28;20018;-49
2024/02/07 02:41:08;;;;;;;11.05;7.53;;;;;;;;;;2072579;28;20519;-47
2024/02/07 02:42:10;;;;;;;14.05;7.72;;;;;;;;;;2073058;28;20026;-47
2024/02/07 02:43:11;;;;;;;13.80;8.05;;;;;;;;;;2072609;28;20033;-48
2024/02/07 02:44:13;;;;;;;12.40;7.95;;;;;;;;;;2076530;28;20104;-47
2024/02/07 02:45:14;;;;;;;17.75;8.18;;;;;;;;;;2079802;28;20022;-48
2024/02/07 02:46:15;;;;;;;13.18;7.90;;;;;;;;;;2080040;28;20014;-47
2024/02/07 02:47:17;;;;;;;13.75;8.00;;;;;;;;;;2079368;28;20030;-47
2024/02/07 02:48:18;;;;;;;13.88;7.85;;;;;;;;;;2079830;28;20037;-47
2024/02/07 02:49:19;;;;;;;11.20;7.20;;;;;;;;;;2080775;28;20096;-46
2024/02/07 02:50:25;;;;;;;12.52;7.47;;;;;;;;;;2081217;28;20022;-48
2024/02/07 02:51:27;;;;;;;13.30;7.15;;;;;;;;;;2081127;28;20092;-47
2024/02/07 02:52:28;;;;;;;12.07;7.68;;;;;;;;;;2082232;28;20527;-47
2024/02/07 02:53:33;;;;;;;11.38;7.20;;;;;;;;;;2078059;28;20065;-51
2024/02/07 02:54:36;;;;;;;13.40;6.75;;;;;;;;;;2082161;28;20036;-50
2024/02/07 02:55:37;;;;;;;11.93;7.05;;;;;;;;;;2074107;28;20277;-52
2024/02/07 02:56:39;;;;;;;12.38;7.60;;;;;;;;;;2075031;28;20400;-50
2024/02/07 02:57:42;;;;;;;14.45;7.00;;;;;;;;;;2075057;28;20026;-52
2024/02/07 02:58:44;;;;;;;13.50;7.55;;;;;;;;;;2081821;28;20026;-47
2024/02/07 02:59:48;;;;;;;13.63;7.55;;;;;;;;;;2079974;28;20444;-49
2024/02/07 03:00:50;;;;;;;13.65;7.35;;;;;;;;;;2080484;28;20028;-49
2024/02/07 03:01:51;;;;;;;12.85;7.65;;;;;;;;;;2080260;28;20030;-47
2024/02/07 03:02:55;;;;;;;10.20;6.45;;;;;;;;;;2076282;28;20092;-47
2024/02/07 03:03:57;;;;;;;13.35;7.50;;;;;;;;;;2081991;28;20022;-48
2024/02/07 03:05:00;;;;;;;13.82;7.15;;;;;;;;;;2082687;28;20040;-48
2024/02/07 03:06:03;;;;;;;13.65;7.82;;;;;;;;;;2080722;28;20060;-48
2024/02/07 03:08:42;;;;;;;16.92;7.47;;;;;;;;;;2074005;28;20326;-49
2024/02/07 03:09:49;;;;;;;14.60;6.75;;;;;;;;;;2078614;28;20488;-48
2024/02/07 03:10:50;;;;;;;13.80;7.55;;;;;;;;;;2081601;28;20041;-47
2024/02/07 03:11:52;;;;;;;11.45;6.97;;;;;;;;;;2081456;28;20480;-48
2024/02/07 03:12:53;;;;;;;12.25;7.55;;;;;;;;;;2081277;28;20415;-49
2024/02/07 03:13:54;;;;;;;12.70;7.22;;;;;;;;;;2075108;28;20485;-49
2024/02/07 03:14:56;;;;;;;12.63;7.47;;;;;;;;;;2078909;28;20029;-48
2024/02/07 03:15:57;;;;;;;11.52;7.72;;;;;;;;;;2076620;28;20033;-48
2024/02/07 03:16:59;;;;;;;14.90;6.90;;;;;;;;;;2081868;28;20503;-48
2024/02/07 03:18:01;;;;;;;12.38;7.47;;;;;;;;;;2081588;28;20083;-48
2024/02/07 03:19:03;;;;;;;14.38;7.80;;;;;;;;;;2081253;28;20029;-49
2024/02/07 03:20:05;;;;;;;14.95;7.90;;;;;;;;;;2081694;28;20387;-50
2024/02/07 03:21:07;;;;;;;12.88;7.72;;;;;;;;;;2077093;28;20018;-57
2024/02/07 03:22:09;;;;;;;14.68;7.05;;;;;;;;;;2075069;28;20034;-49
2024/02/07 03:23:10;;;;;;;10.02;6.20;;;;;;;;;;2081838;28;20105;-49
2024/02/07 03:24:11;;;;;;;10.65;7.25;;;;;;;;;;2073792;28;20057;-49
2024/02/07 03:25:20;;;;;;;14.32;7.20;;;;;;;;;;2081762;28;20017;-50
2024/02/07 03:26:22;;;;;;;13.93;7.07;;;;;;;;;;2081613;28;20105;-49
2024/02/07 03:27:23;;;;;;;14.40;7.53;;;;;;;;;;2077752;28;20032;-49
2024/02/07 03:28:25;;;;;;;14.20;7.20;;;;;;;;;;2073667;28;20080;-48
2024/02/07 03:29:27;;;;;;;12.52;7.18;;;;;;;;;;2081839;28;20005;-51
2024/02/07 03:30:28;;;;;;;11.82;7.85;;;;;;;;;;2080198;28;20337;-48
2024/02/07 03:31:31;;;;;;;13.75;6.95;;;;;;;;;;2074683;28;20014;-49
2024/02/07 03:32:34;;;;;;;12.63;6.55;;;;;;;;;;2074496;28;20105;-49
2024/02/07 03:33:36;;;;;;;10.95;6.80;;;;;;;;;;2075951;28;20495;-48
2024/02/07 03:34:37;;;;;;;11.75;6.20;;;;;;;;;;2082926;28;20017;-48
2024/02/07 03:35:38;;;;;;;11.73;6.70;;;;;;;;;;2082552;28;20359;-48
2024/02/07 03:36:40;;;;;;;13.68;7.30;;;;;;;;;;2082496;28;20434;-49
2024/02/07 03:37:41;;;;;;;12.77;7.60;;;;;;;;;;2080199;28;20104;-47
2024/02/07 03:38:42;;;;;;;12.95;7.30;;;;;;;;;;2076223;28;20052;-48
2024/02/07 03:39:44;;;;;;;10.82;7.20;;;;;;;;;;2087169;28;20017;-48
2024/02/07 03:40:45;;;;;;;13.55;7.45;;;;;;;;;;2084533;28;20384;-48
2024/02/07 03:41:46;;;;;;;12.35;7.20;;;;;;;;;;2087899;28;20433;-50
2024/02/07 03:42:48;;;;;;;11.07;7.00;;;;;;;;;;2072976;28;20025;-48
2024/02/07 03:43:49;;;;;;;11.65;6.93;;;;;;;;;;2072096;28;20018;-48
2024/02/07 03:44:57;;;;;;;15.90;6.93;;;;;;;;;;2073935;28;20026;-49
2024/02/07 03:45:58;;;;;;;13.13;7.60;;;;;;;;;;2081366;28;20392;-47
2024/02/07 03:46:59;;;;;;;12.07;6.15;;;;;;;;;;2081728;28;20105;-48
2024/02/07 03:48:01;;;;;;;11.95;6.18;;;;;;;;;;2073847;28;20026;-47
2024/02/07 03:49:02;;;;;;;11.23;6.07;;;;;;;;;;2077053;28;20013;-47
2024/02/07 03:50:05;;;;;;;12.93;6.45;;;;;;;;;;2081999;28;20026;-47
2024/02/07 03:51:08;;;;;;;9.98;6.60;;;;;;;;;;2082014;28;20091;-48
2024/02/07 03:52:09;;;;;;;12.63;7.03;;;;;;;;;;2077297;28;20041;-53
2024/02/07 03:53:10;;;;;;;12.77;6.78;;;;;;;;;;2082017;28;20377;-53
2024/02/07 03:54:12;;;;;;;12.32;6.88;;;;;;;;;;2081031;28;20104;-51
2024/02/07 03:55:13;;;;;;;10.70;6.10;;;;;;;;;;2081113;28;20416;-52
2024/02/07 03:56:14;;;;;;;11.18;6.95;;;;;;;;;;2081423;28;20392;-51
2024/02/07 03:57:19;;;;;;;11.18;6.80;;;;;;;;;;2078760;28;20440;-49
2024/02/07 03:58:21;;;;;;;12.25;7.03;;;;;;;;;;2080303;28;20139;-48
2024/02/07 03:59:22;;;;;;;12.57;7.20;;;;;;;;;;2081338;28;20028;-50
2024/02/07 04:00:25;;;;;;;9.20;6.45;;;;;;;;;;2081193;28;20097;-52
2024/02/07 04:01:26;;;;;;;11.43;6.70;;;;;;;;;;2081013;28;20022;-49
2024/02/07 04:02:27;;;;;;;10.35;7.00;;;;;;;;;;2075778;28;20042;-52
2024/02/07 04:03:28;;;;;;;10.85;6.32;;;;;;;;;;2075842;28;20089;-51
2024/02/07 04:04:30;;;;;;;10.30;6.85;;;;;;;;;;2082356;28;20014;-52
2024/02/07 04:05:31;;;;;;;11.90;6.75;;;;;;;;;;2070494;28;20539;-53
2024/02/07 04:06:33;;;;;;;11.15;7.60;;;;;;;;;;2078248;28;20087;-52
2024/02/07 04:07:35;;;;;;;13.07;6.78;;;;;;;;;;2081483;28;20021;-52
2024/02/07 04:08:36;;;;;;;13.05;6.60;;;;;;;;;;2081953;28;20096;-53
2024/02/07 04:09:39;;;;;;;9.77;6.40;;;;;;;;;;2081354;28;20427;-52
2024/02/07 04:10:45;;;;;;;12.55;7.13;;;;;;;;;;2081854;28;20361;-50
2024/02/07 05:15:49;;;;;;;14.25;8.73;;;;;;;;;;2077194;28;20033;-55
2024/02/07 05:16:50;;;;;;;13.40;7.47;;;;;;;;;;2077830;28;20178;-53
2024/02/07 05:17:51;;;;;;;13.20;7.80;;;;;;;;;;2073863;28;20124;-49
2024/02/07 05:18:52;;;;;;;14.48;7.63;;;;;;;;;;2076111;28;20085;-51
2024/02/07 05:19:54;;;;;;;12.43;7.93;;;;;;;;;;2072577;28;20034;-54
2024/02/07 05:20:55;;;;;;;14.35;7.55;;;;;;;;;;2079123;28;20460;-53
2024/02/07 05:21:57;;;;;;;12.50;7.38;;;;;;;;;;2074189;28;20018;-51
2024/02/07 05:22:58;;;;;;;14.32;7.60;;;;;;;;;;2074207;28;20034;-48
2024/02/07 05:24:00;;;;;;;16.75;8.02;;;;;;;;;;2075607;28;20030;-54
2024/02/07 05:25:03;;;;;;;15.88;8.80;;;;;;;;;;2078887;28;20032;-53
2024/02/07 05:26:05;;;;;;;16.58;8.65;;;;;;;;;;2080950;28;20045;-53
2024/02/07 05:27:07;;;;;;;21.10;8.48;;;;;;;;;;2080705;28;20036;-54
2024/02/07 05:28:09;;;;;;;17.50;8.88;;;;;;;;;;2080934;28;20134;-53
2024/02/07 05:29:15;;;;;;;17.83;9.57;;;;;;;;;;2080836;28;20448;-48
2024/02/07 05:30:17;;;;;;;25.33;9.45;;;;;;;;;;2080145;28;20025;-49
2024/02/07 05:31:18;;;;;;;19.10;9.88;;;;;;;;;;2080532;28;20038;-48
2024/02/07 05:32:19;;;;;;;20.35;9.80;;;;;;;;;;2083144;28;20107;-49
2024/02/07 05:33:21;;;;;;;18.45;8.85;;;;;;;;;;2083412;28;20034;-48
2024/02/07 05:34:22;;;;;;;17.35;10.18;;;;;;;;;;2079652;28;20037;-47
2024/02/07 05:35:24;;;;;;;19.17;10.60;;;;;;;;;;2076491;28;20034;-48
2024/02/07 05:36:25;;;;;;;21.30;10.35;;;;;;;;;;2073153;28;20033;-49
2024/02/07 05:37:28;;;;;;;20.48;9.98;;;;;;;;;;2073620;28;20412;-47
2024/02/07 05:38:29;;;;;;;18.88;10.52;;;;;;;;;;2076030;28;20025;-46
2024/02/07 05:39:33;;;;;;;18.25;10.45;;;;;;;;;;2080586;28;20037;-48
2024/02/07 05:40:34;;;;;;;17.00;9.95;;;;;;;;;;2080441;28;20105;-49
2024/02/07 05:41:36;;;;;;;21.35;10.63;;;;;;;;;;2079675;28;20385;-48
2024/02/07 05:42:37;;;;;;;20.10;10.68;;;;;;;;;;2078278;28;20419;-47
2024/02/07 05:43:38;;;;;;;23.67;10.65;;;;;;;;;;2080616;28;20399;-48
2024/02/07 05:44:39;;;;;;;21.35;10.82;;;;;;;;;;2080014;28;20484;-49
2024/02/07 05:45:41;;;;;;;20.23;10.52;;;;;;;;;;2080644;28;20116;-47
2024/02/07 05:46:42;;;;;;;21.83;10.77;;;;;;;;;;2077826;28;20021;-46
2024/02/07 05:47:44;;;;;;;18.17;10.35;;;;;;;;;;2072977;28;20026;-50
2024/02/07 05:48:45;;;;;;;19.83;10.38;;;;;;;;;;2073906;28;20018;-48
2024/02/07 05:49:47;;;;;;;20.50;10.63;;;;;;;;;;2074139;28;20014;-48
2024/02/07 05:50:48;;;;;;;16.70;9.52;;;;;;;;;;2072824;28;20122;-49
2024/02/07 05:51:57;;;;;;;26.27;11.02;;;;;;;;;;2076782;28;20076;-49
2024/02/07 05:52:58;;;;;;;22.40;11.07;;;;;;;;;;2080042;28;20037;-47
2024/02/07 05:54:00;;;;;;;20.55;10.65;;;;;;;;;;2080623;28;20029;-46
2024/02/07 05:55:01;;;;;;;27.33;11.40;;;;;;;;;;2080159;28;20040;-47
2024/02/07 05:56:02;;;;;;;19.25;11.30;;;;;;;;;;2080048;28;20021;-46
2024/02/07 05:57:04;;;;;;;18.80;10.80;;;;;;;;;;2080882;28;20040;-46
2024/02/07 05:58:05;;;;;;;28.92;12.10;;;;;;;;;;2077246;28;20116;-48
2024/02/07 05:59:06;;;;;;;17.30;10.80;;;;;;;;;;2072610;28;20025;-48
2024/02/07 06:00:09;;;;;;;23.35;10.65;;;;;;;;;;2071804;28;20013;-47
2024/02/07 06:01:11;;;;;;;22.95;11.10;;;;;;;;;;2073258;28;20069;-47
2024/02/07 06:02:13;;;;;;;21.77;10.70;;;;;;;;;;2073028;28;20144;-46
2024/02/07 06:03:14;;;;;;;20.27;10.68;;;;;;;;;;2074536;28;20381;-47
2024/02/07 06:04:17;;;;;;;24.13;11.13;;;;;;;;;;2073410;28;20034;-50
2024/02/07 06:05:19;;;;;;;23.17;11.05;;;;;;;;;;2088350;28;20475;-46
2024/02/07 06:06:22;;;;;;;27.42;10.80;;;;;;;;;;2083482;28;20029;-47
2024/02/07 06:07:24;;;;;;;22.90;11.30;;;;;;;;;;2080855;28;20096;-45
2024/02/07 06:08:25;;;;;;;22.85;11.27;;;;;;;;;;2080611;28;20026;-48
2024/02/07 06:09:26;;;;;;;22.23;11.02;;;;;;;;;;2080167;28;20022;-47
2024/02/07 06:10:28;;;;;;;19.95;11.93;;;;;;;;;;2080939;28;20021;-46
2024/02/07 06:11:31;;;;;;;23.10;11.10;;;;;;;;;;2080578;28;20022;-46
2024/02/07 06:12:33;;;;;;;25.30;11.20;;;;;;;;;;2078069;28;20032;-48
2024/02/07 06:13:38;;;;;;;19.40;10.70;;;;;;;;;;2080140;28;20036;-46
2024/02/07 06:14:42;;;;;;;22.08;11.55;;;;;;;;;;2080099;28;20017;-48
2024/02/07 06:15:44;;;;;;;21.58;10.73;;;;;;;;;;2080179;28;20033;-47
2024/02/07 06:16:45;;;;;;;24.15;11.75;;;;;;;;;;2079628;28;20056;-47
2024/02/07 06:17:47;;;;;;;21.77;11.10;;;;;;;;;;2076652;28;20056;-48
2024/02/07 06:18:48;;;;;;;21.38;11.30;;;;;;;;;;2072743;28;20098;-47
2024/02/07 06:19:49;;;;;;;22.92;11.48;;;;;;;;;;2080517;28;20025;-46
2024/02/07 06:20:51;;;;;;;20.35;10.90;;;;;;;;;;2077384;28;20019;-46
2024/02/07 06:21:52;;;;;;;25.70;11.10;;;;;;;;;;2072500;28;20032;-48
2024/02/07 06:22:54;;;;;;;21.27;10.57;;;;;;;;;;2078703;28;20021;-47
2024/02/07 06:23:55;;;;;;;18.65;11.18;;;;;;;;;;2087562;28;20029;-46
2024/02/07 06:24:56;;;;;;;24.88;11.73;;;;;;;;;;2089233;28;20029;-48
2024/02/07 06:25:57;;;;;;;17.92;11.55;;;;;;;;;;2082107;28;20038;-48
2024/02/07 06:26:59;;;;;;;22.00;11.25;;;;;;;;;;2082109;28;20071;-47
2024/02/07 06:28:00;;;;;;;20.98;11.13;;;;;;;;;;2081263;28;20423;-48
2024/02/07 06:29:02;;;;;;;24.83;11.20;;;;;;;;;;2081177;28;20009;-46
2024/02/07 06:30:03;;;;;;;17.73;10.32;;;;;;;;;;2080500;28;20026;-46
2024/02/07 06:31:04;;;;;;;20.67;11.07;;;;;;;;;;2080721;28;20029;-47
2024/02/07 06:32:06;;;;;;;20.33;11.07;;;;;;;;;;2072650;28;20509;-46
2024/02/07 06:33:08;;;;;;;18.60;10.60;;;;;;;;;;2081964;28;20912;-48
2024/02/07 06:34:09;;;;;;;17.52;9.85;;;;;;;;;;2081665;28;20028;-47
2024/02/07 06:35:11;;;;;;;28.23;13.93;;;;;;;;;;2082483;28;20034;-46
2024/02/07 06:36:12;;;;;;;21.17;10.98;;;;;;;;;;2082278;28;20040;-47
2024/02/07 06:37:13;;;;;;;23.60;9.98;;;;;;;;;;2082204;28;20013;-48
2024/02/07 06:38:15;;;;;;;22.70;9.70;;;;;;;;;;2082175;28;20029;-47
2024/02/07 06:39:16;;;;;;;18.75;9.48;;;;;;;;;;2081846;28;20009;-48
2024/02/07 06:40:17;;;;;;;20.58;9.30;;;;;;;;;;2082307;28;20858;-48
2024/02/07 06:41:18;;;;;;;20.33;9.93;;;;;;;;;;2082436;28;20509;-48
2024/02/07 06:42:20;;;;;;;18.40;9.18;;;;;;;;;;2080140;28;20048;-48
2024/02/07 06:43:21;;;;;;;19.67;9.45;;;;;;;;;;2079606;28;20041;-49
2024/02/07 06:44:22;;;;;;;20.38;9.10;;;;;;;;;;2081755;28;20049;-47
2024/02/07 06:45:23;;;;;;;13.40;7.68;;;;;;;;;;2081414;28;20036;-48
2024/02/07 06:46:25;;;;;;;15.02;8.85;;;;;;;;;;2089965;28;20471;-46
2024/02/07 06:47:26;;;;;;;18.88;9.70;;;;;;;;;;2081470;28;20021;-47
2024/02/07 06:48:27;;;;;;;16.77;8.80;;;;;;;;;;2082762;28;20024;-47
2024/02/07 06:49:28;;;;;;;18.00;9.15;;;;;;;;;;2089482;28;20036;-47
2024/02/07 06:50:30;;;;;;;15.10;8.45;;;;;;;;;;2082131;28;20021;-47
2024/02/07 06:51:31;;;;;;;18.45;8.65;;;;;;;;;;2079772;28;20028;-47
2024/02/07 06:52:32;;;;;;;20.63;9.55;;;;;;;;;;2078362;28;20523;-47
2024/02/07 06:53:34;;;;;;;17.55;8.82;;;;;;;;;;2081746;28;20025;-48
2024/02/07 06:54:35;;;;;;;20.17;9.60;;;;;;;;;;2081118;28;20021;-47
2024/02/07 06:55:36;;;;;;;19.55;9.18;;;;;;;;;;2080617;28;20455;-47
2024/02/07 06:56:38;;;;;;;20.67;9.70;;;;;;;;;;2079610;28;20476;-47
2024/02/07 06:57:39;;;;;;;18.30;8.77;;;;;;;;;;2081971;28;20160;-50
2024/02/07 06:58:40;;;;;;;24.20;8.95;;;;;;;;;;2082030;28;20091;-49
2024/02/07 06:59:41;;;;;;;19.40;8.95;;;;;;;;;;2081361;28;20550;-47
2024/02/07 07:00:43;;;;;;;17.20;8.60;;;;;;;;;;2081401;28;20033;-48
2024/02/07 07:01:44;;;;;;;19.15;9.00;;;;;;;;;;2075646;28;20109;-48
2024/02/07 07:02:45;;;;;;;21.55;10.93;;;;;;;;;;2078473;28;20018;-47
2024/02/07 07:03:51;;;;;;;16.95;9.15;;;;;;;;;;2079534;28;20032;-48
2024/02/07 07:04:52;;;;;;;24.65;9.15;;;;;;;;;;2083974;28;20039;-51
2024/02/07 07:05:54;;;;;;;25.80;10.02;;;;;;;;;;2088848;28;20086;-54
2024/02/07 07:06:55;;;;;;;17.98;8.55;;;;;;;;;;2074126;28;20029;-52
2024/02/07 07:07:56;;;;;;;18.00;8.07;;;;;;;;;;2077320;28;20486;-53
2024/02/07 07:08:57;;;;;;;16.30;8.38;;;;;;;;;;2082091;28;20029;-54
2024/02/07 07:09:59;;;;;;;20.58;8.88;;;;;;;;;;2074926;28;20033;-53
2024/02/07 07:11:00;;;;;;;18.48;8.80;;;;;;;;;;2075051;28;20409;-52